sensor_id;sensor_type;location;lat;lon;timestamp;P1;durP1;ratioP1;P2;durP2;ratioP2
20090;SDS011;10205;49.678;6.560;2024-02-28T00:00:30;16.40;;;12.93;;
20090;SDS011;10205;49.678;6.560;2024-02-28T00:02:57;20.60;;;12.30;;
20090;SDS011;10205;49.678;6.560;2024-02-28T00:05:24;16.63;;;11.97;;
20090;SDS011;10205;49.678;6.560;2024-02-28T00:07:51;17.37;;;13.03;;
20090;SDS011;10205;49.678;6.560;2024-02-28T00:10:18;16.10;;;12.13;;
20090;SDS011;10205;49.678;6.560;2024-02-28T00:12:46;17.07;;;12.97;;
20090;SDS011;10205;49.678;6.560;2024-02-28T00:15:13;17.67;;;12.97;;
20090;SDS011;10205;49.678;6.560;2024-02-28T00:17:41;16.73;;;12.33;;
20090;SDS011;10205;49.678;6.560;2024-02-28T00:20:08;16.13;;;12.07;;
20090;SDS011;10205;49.678;6.560;2024-02-28T00:22:36;15.25;;;12.55;;
20090;SDS011;10205;49.678;6.560;2024-02-28T00:25:04;18.07;;;12.93;;
20090;SDS011;10205;49.678;6.560;2024-02-28T00:27:33;15.93;;;12.55;;
20090;SDS011;10205;49.678;6.560;2024-02-28T00:30:02;16.15;;;12.20;;
20090;SDS011;10205;49.678;6.560;2024-02-28T00:32:31;15.75;;;12.02;;
20090;SDS011;10205;49.678;6.560;2024-02-28T00:34:58;16.13;;;12.23;;
20090;SDS011;10205;49.678;6.560;2024-02-28T00:37:25;17.47;;;13.17;;
20090;SDS011;10205;49.678;6.560;2024-02-28T00:39:52;17.30;;;13.07;;
20090;SDS011;10205;49.678;6.560;2024-02-28T00:42:19;17.30;;;13.93;;
20090;SDS011;10205;49.678;6.560;2024-02-28T00:44:46;15.80;;;12.57;;
20090;SDS011;10205;49.678;6.560;2024-02-28T00:47:15;18.73;;;12.73;;
20090;SDS011;10205;49.678;6.560;2024-02-28T00:49:42;17.37;;;12.90;;
20090;SDS011;10205;49.678;6.560;2024-02-28T00:52:09;15.85;;;12.35;;
20090;SDS011;10205;49.678;6.560;2024-02-28T00:54:36;17.77;;;12.80;;
20090;SDS011;10205;49.678;6.560;2024-02-28T00:57:04;16.35;;;13.05;;
20090;SDS011;10205;49.678;6.560;2024-02-28T00:59:31;19.80;;;14.20;;
20090;SDS011;10205;49.678;6.560;2024-02-28T01:01:58;19.73;;;13.75;;
20090;SDS011;10205;49.678;6.560;2024-02-28T01:04:26;19.02;;;13.70;;
20090;SDS011;10205;49.678;6.560;2024-02-28T01:06:53;18.83;;;13.68;;
20090;SDS011;10205;49.678;6.560;2024-02-28T01:09:21;18.97;;;14.50;;
20090;SDS011;10205;49.678;6.560;2024-02-28T01:11:48;22.00;;;15.43;;
20090;SDS011;10205;49.678;6.560;2024-02-28T01:14:15;18.57;;;13.30;;
20090;SDS011;10205;49.678;6.560;2024-02-28T01:16:42;18.87;;;13.73;;
20090;SDS011;10205;49.678;6.560;2024-02-28T01:19:10;19.53;;;13.90;;
20090;SDS011;10205;49.678;6.560;2024-02-28T01:21:39;18.77;;;13.43;;
20090;SDS011;10205;49.678;6.560;2024-02-28T01:24:06;20.67;;;15.53;;
20090;SDS011;10205;49.678;6.560;2024-02-28T01:26:33;20.13;;;14.67;;
20090;SDS011;10205;49.678;6.560;2024-02-28T01:29:00;23.37;;;15.30;;
20090;SDS011;10205;49.678;6.560;2024-02-28T01:31:27;24.43;;;15.73;;
20090;SDS011;10205;49.678;6.560;2024-02-28T01:33:55;21.27;;;14.53;;
20090;SDS011;10205;49.678;6.560;2024-02-28T01:36:22;22.40;;;15.17;;
20090;SDS011;10205;49.678;6.560;2024-02-28T01:38:51;21.80;;;14.67;;
20090;SDS011;10205;49.678;6.560;2024-02-28T01:41:19;21.23;;;14.50;;
20090;SDS011;10205;49.678;6.560;2024-02-28T01:43:46;21.97;;;14.17;;
20090;SDS011;10205;49.678;6.560;2024-02-28T01:46:17;21.13;;;15.60;;
20090;SDS011;10205;49.678;6.560;2024-02-28T01:48:49;21.73;;;15.53;;
20090;SDS011;10205;49.678;6.560;2024-02-28T01:51:17;21.73;;;15.90;;
20090;SDS011;10205;49.678;6.560;2024-02-28T01:53:45;21.70;;;15.10;;
20090;SDS011;10205;49.678;6.560;2024-02-28T01:56:14;21.47;;;14.90;;
20090;SDS011;10205;49.678;6.560;2024-02-28T01:58:43;21.13;;;14.67;;
20090;SDS011;10205;49.678;6.560;2024-02-28T02:01:13;23.10;;;15.33;;
20090;SDS011;10205;49.678;6.560;2024-02-28T02:03:42;20.53;;;14.33;;
20090;SDS011;10205;49.678;6.560;2024-02-28T02:06:09;22.37;;;14.90;;
20090;SDS011;10205;49.678;6.560;2024-02-28T02:08:37;23.53;;;16.00;;
20090;SDS011;10205;49.678;6.560;2024-02-28T02:11:05;23.77;;;14.47;;
20090;SDS011;10205;49.678;6.560;2024-02-28T02:13:34;24.90;;;17.03;;
20090;SDS011;10205;49.678;6.560;2024-02-28T02:16:01;25.93;;;16.33;;
20090;SDS011;10205;49.678;6.560;2024-02-28T02:18:28;21.80;;;15.43;;
20090;SDS011;10205;49.678;6.560;2024-02-28T02:20:57;24.10;;;15.80;;
20090;SDS011;10205;49.678;6.560;2024-02-28T02:23:32;27.83;;;17.10;;
20090;SDS011;10205;49.678;6.560;2024-02-28T02:26:00;25.00;;;16.37;;
20090;SDS011;10205;49.678;6.560;2024-02-28T02:28:27;23.47;;;17.00;;
20090;SDS011;10205;49.678;6.560;2024-02-28T02:30:54;26.87;;;17.50;;
20090;SDS011;10205;49.678;6.560;2024-02-28T02:33:21;24.63;;;16.33;;
20090;SDS011;10205;49.678;6.560;2024-02-28T02:35:48;26.03;;;17.67;;
20090;SDS011;10205;49.678;6.560;2024-02-28T02:38:16;25.00;;;16.83;;
20090;SDS011;10205;49.678;6.560;2024-02-28T02:40:47;25.33;;;17.03;;
20090;SDS011;10205;49.678;6.560;2024-02-28T02:43:15;24.90;;;16.67;;
20090;SDS011;10205;49.678;6.560;2024-02-28T02:45:42;25.73;;;19.00;;
20090;SDS011;10205;49.678;6.560;2024-02-28T02:48:09;27.03;;;18.23;;
20090;SDS011;10205;49.678;6.560;2024-02-28T02:50:38;25.07;;;16.87;;
20090;SDS011;10205;49.678;6.560;2024-02-28T02:53:06;26.70;;;18.00;;
20090;SDS011;10205;49.678;6.560;2024-02-28T02:55:35;25.60;;;17.17;;
20090;SDS011;10205;49.678;6.560;2024-02-28T02:58:04;28.47;;;17.53;;
20090;SDS011;10205;49.678;6.560;2024-02-28T03:00:31;25.73;;;19.70;;
20090;SDS011;10205;49.678;6.560;2024-02-28T03:02:58;29.47;;;21.17;;
20090;SDS011;10205;49.678;6.560;2024-02-28T03:05:25;28.83;;;22.17;;
20090;SDS011;10205;49.678;6.560;2024-02-28T03:07:52;26.73;;;20.23;;
20090;SDS011;10205;49.678;6.560;2024-02-28T03:10:19;26.23;;;17.70;;
20090;SDS011;10205;49.678;6.560;2024-02-28T03:12:46;29.00;;;17.83;;
20090;SDS011;10205;49.678;6.560;2024-02-28T03:15:15;25.23;;;16.83;;
20090;SDS011;10205;49.678;6.560;2024-02-28T03:17:42;26.20;;;19.73;;
20090;SDS011;10205;49.678;6.560;2024-02-28T03:20:09;28.87;;;18.23;;
20090;SDS011;10205;49.678;6.560;2024-02-28T03:22:38;26.10;;;17.10;;
20090;SDS011;10205;49.678;6.560;2024-02-28T03:25:06;27.47;;;21.27;;
20090;SDS011;10205;49.678;6.560;2024-02-28T03:27:34;28.27;;;18.53;;
20090;SDS011;10205;49.678;6.560;2024-02-28T03:30:01;25.70;;;17.37;;
20090;SDS011;10205;49.678;6.560;2024-02-28T03:32:31;25.83;;;17.40;;
20090;SDS011;10205;49.678;6.560;2024-02-28T03:34:58;26.60;;;20.73;;
20090;SDS011;10205;49.678;6.560;2024-02-28T03:37:25;28.17;;;17.60;;
20090;SDS011;10205;49.678;6.560;2024-02-28T03:39:52;27.37;;;17.53;;
20090;SDS011;10205;49.678;6.560;2024-02-28T03:42:19;31.02;;;17.65;;
20090;SDS011;10205;49.678;6.560;2024-02-28T03:44:46;27.43;;;16.60;;
20090;SDS011;10205;49.678;6.560;2024-02-28T03:47:13;27.63;;;17.90;;
20090;SDS011;10205;49.678;6.560;2024-02-28T03:49:42;26.57;;;17.70;;
20090;SDS011;10205;49.678;6.560;2024-02-28T03:52:09;29.60;;;19.90;;
20090;SDS011;10205;49.678;6.560;2024-02-28T03:54:41;26.37;;;20.33;;
20090;SDS011;10205;49.678;6.560;2024-02-28T03:57:08;25.67;;;16.00;;
20090;SDS011;10205;49.678;6.560;2024-02-28T03:59:35;26.70;;;20.05;;
20090;SDS011;10205;49.678;6.560;2024-02-28T04:02:02;28.07;;;20.50;;
20090;SDS011;10205;49.678;6.560;2024-02-28T04:04:30;27.13;;;19.37;;
20090;SDS011;10205;49.678;6.560;2024-02-28T04:06:58;29.60;;;17.73;;
20090;SDS011;10205;49.678;6.560;2024-02-28T04:09:26;26.50;;;17.23;;
20090;SDS011;10205;49.678;6.560;2024-02-28T04:11:53;24.80;;;16.67;;
20090;SDS011;10205;49.678;6.560;2024-02-28T04:14:21;27.37;;;19.27;;
20090;SDS011;10205;49.678;6.560;2024-02-28T04:16:48;28.70;;;18.13;;
20090;SDS011;10205;49.678;6.560;2024-02-28T04:19:15;25.77;;;17.63;;
20090;SDS011;10205;49.678;6.560;2024-02-28T04:21:42;24.50;;;16.23;;
20090;SDS011;10205;49.678;6.560;2024-02-28T04:24:11;23.43;;;15.57;;
20090;SDS011;10205;49.678;6.560;2024-02-28T04:26:37;23.23;;;15.53;;
20090;SDS011;10205;49.678;6.560;2024-02-28T04:29:04;23.27;;;15.17;;
20090;SDS011;10205;49.678;6.560;2024-02-28T04:31:37;28.13;;;16.37;;
20090;SDS011;10205;49.678;6.560;2024-02-28T04:34:04;23.67;;;17.00;;
20090;SDS011;10205;49.678;6.560;2024-02-28T04:36:31;23.20;;;16.30;;
20090;SDS011;10205;49.678;6.560;2024-02-28T04:38:58;24.70;;;17.70;;
20090;SDS011;10205;49.678;6.560;2024-02-28T04:41:28;23.33;;;16.73;;
20090;SDS011;10205;49.678;6.560;2024-02-28T04:43:55;22.70;;;14.83;;
20090;SDS011;10205;49.678;6.560;2024-02-28T04:46:22;27.37;;;18.40;;
20090;SDS011;10205;49.678;6.560;2024-02-28T04:48:49;22.77;;;16.53;;
20090;SDS011;10205;49.678;6.560;2024-02-28T04:51:16;25.57;;;15.97;;
20090;SDS011;10205;49.678;6.560;2024-02-28T04:53:43;25.60;;;15.63;;
20090;SDS011;10205;49.678;6.560;2024-02-28T04:56:10;24.80;;;15.07;;
20090;SDS011;10205;49.678;6.560;2024-02-28T04:58:39;24.20;;;15.83;;
20090;SDS011;10205;49.678;6.560;2024-02-28T05:01:06;26.13;;;15.77;;
20090;SDS011;10205;49.678;6.560;2024-02-28T05:03:33;23.90;;;15.97;;
20090;SDS011;10205;49.678;6.560;2024-02-28T05:06:00;26.80;;;16.53;;
20090;SDS011;10205;49.678;6.560;2024-02-28T05:08:27;25.33;;;16.27;;
20090;SDS011;10205;49.678;6.560;2024-02-28T05:10:55;23.13;;;14.13;;
20090;SDS011;10205;49.678;6.560;2024-02-28T05:13:22;25.10;;;16.00;;
20090;SDS011;10205;49.678;6.560;2024-02-28T05:15:50;23.73;;;16.03;;
20090;SDS011;10205;49.678;6.560;2024-02-28T05:18:17;24.50;;;14.97;;
20090;SDS011;10205;49.678;6.560;2024-02-28T05:20:44;26.50;;;16.60;;
20090;SDS011;10205;49.678;6.560;2024-02-28T05:23:12;24.70;;;15.57;;
20090;SDS011;10205;49.678;6.560;2024-02-28T05:25:40;23.20;;;14.90;;
20090;SDS011;10205;49.678;6.560;2024-02-28T05:28:07;24.57;;;15.67;;
20090;SDS011;10205;49.678;6.560;2024-02-28T05:30:34;25.47;;;15.47;;
20090;SDS011;10205;49.678;6.560;2024-02-28T05:33:02;24.03;;;15.03;;
20090;SDS011;10205;49.678;6.560;2024-02-28T05:35:30;22.97;;;15.07;;
20090;SDS011;10205;49.678;6.560;2024-02-28T05:37:57;25.57;;;16.37;;
20090;SDS011;10205;49.678;6.560;2024-02-28T05:40:24;23.90;;;15.43;;
20090;SDS011;10205;49.678;6.560;2024-02-28T05:42:51;22.37;;;14.93;;
20090;SDS011;10205;49.678;6.560;2024-02-28T05:45:18;22.90;;;15.53;;
20090;SDS011;10205;49.678;6.560;2024-02-28T05:47:45;27.40;;;16.70;;
20090;SDS011;10205;49.678;6.560;2024-02-28T05:50:14;22.10;;;15.17;;
20090;SDS011;10205;49.678;6.560;2024-02-28T05:52:41;23.27;;;15.13;;
20090;SDS011;10205;49.678;6.560;2024-02-28T05:55:08;22.73;;;15.03;;
20090;SDS011;10205;49.678;6.560;2024-02-28T05:57:35;25.37;;;15.43;;
20090;SDS011;10205;49.678;6.560;2024-02-28T06:00:04;28.00;;;16.13;;
20090;SDS011;10205;49.678;6.560;2024-02-28T06:02:35;26.30;;;16.33;;
20090;SDS011;10205;49.678;6.560;2024-02-28T06:05:02;26.07;;;15.80;;
20090;SDS011;10205;49.678;6.560;2024-02-28T06:07:31;25.77;;;18.03;;
20090;SDS011;10205;49.678;6.560;2024-02-28T06:09:58;26.73;;;15.63;;
20090;SDS011;10205;49.678;6.560;2024-02-28T06:12:26;27.70;;;18.93;;
20090;SDS011;10205;49.678;6.560;2024-02-28T06:14:53;26.57;;;16.80;;
20090;SDS011;10205;49.678;6.560;2024-02-28T06:17:20;22.90;;;15.23;;
20090;SDS011;10205;49.678;6.560;2024-02-28T06:19:47;27.17;;;16.20;;
20090;SDS011;10205;49.678;6.560;2024-02-28T06:22:14;26.70;;;16.20;;
20090;SDS011;10205;49.678;6.560;2024-02-28T06:24:44;26.00;;;15.87;;
20090;SDS011;10205;49.678;6.560;2024-02-28T06:27:11;24.87;;;15.30;;
20090;SDS011;10205;49.678;6.560;2024-02-28T06:29:39;28.03;;;19.17;;
20090;SDS011;10205;49.678;6.560;2024-02-28T06:32:06;27.97;;;19.37;;
20090;SDS011;10205;49.678;6.560;2024-02-28T06:34:33;29.20;;;17.23;;
20090;SDS011;10205;49.678;6.560;2024-02-28T06:37:00;28.33;;;16.87;;
20090;SDS011;10205;49.678;6.560;2024-02-28T06:39:28;26.00;;;16.50;;
20090;SDS011;10205;49.678;6.560;2024-02-28T06:41:57;28.23;;;20.17;;
20090;SDS011;10205;49.678;6.560;2024-02-28T06:44:24;25.90;;;15.80;;
20090;SDS011;10205;49.678;6.560;2024-02-28T06:46:51;26.70;;;19.30;;
20090;SDS011;10205;49.678;6.560;2024-02-28T06:49:18;27.50;;;16.67;;
20090;SDS011;10205;49.678;6.560;2024-02-28T06:51:45;24.93;;;15.83;;
20090;SDS011;10205;49.678;6.560;2024-02-28T06:54:12;29.83;;;20.73;;
20090;SDS011;10205;49.678;6.560;2024-02-28T06:56:39;25.03;;;16.00;;
20090;SDS011;10205;49.678;6.560;2024-02-28T06:59:07;29.07;;;19.73;;
20090;SDS011;10205;49.678;6.560;2024-02-28T07:01:34;26.70;;;19.57;;
20090;SDS011;10205;49.678;6.560;2024-02-28T07:04:01;28.33;;;19.80;;
20090;SDS011;10205;49.678;6.560;2024-02-28T07:06:29;23.27;;;15.33;;
20090;SDS011;10205;49.678;6.560;2024-02-28T07:08:56;27.07;;;15.47;;
20090;SDS011;10205;49.678;6.560;2024-02-28T07:11:23;27.23;;;15.93;;
20090;SDS011;10205;49.678;6.560;2024-02-28T07:13:50;29.07;;;16.37;;
20090;SDS011;10205;49.678;6.560;2024-02-28T07:16:18;28.30;;;17.03;;
20090;SDS011;10205;49.678;6.560;2024-02-28T07:18:46;28.63;;;16.97;;
20090;SDS011;10205;49.678;6.560;2024-02-28T07:21:13;28.83;;;20.43;;
20090;SDS011;10205;49.678;6.560;2024-02-28T07:23:40;30.30;;;21.23;;
20090;SDS011;10205;49.678;6.560;2024-02-28T07:26:07;29.00;;;17.03;;
20090;SDS011;10205;49.678;6.560;2024-02-28T07:28:35;26.83;;;18.23;;
20090;SDS011;10205;49.678;6.560;2024-02-28T07:31:02;28.47;;;16.10;;
20090;SDS011;10205;49.678;6.560;2024-02-28T07:33:30;28.10;;;16.70;;
20090;SDS011;10205;49.678;6.560;2024-02-28T07:35:57;26.40;;;16.23;;
20090;SDS011;10205;49.678;6.560;2024-02-28T07:38:26;25.53;;;19.33;;
20090;SDS011;10205;49.678;6.560;2024-02-28T07:40:53;29.50;;;19.30;;
20090;SDS011;10205;49.678;6.560;2024-02-28T07:43:20;28.37;;;16.13;;
20090;SDS011;10205;49.678;6.560;2024-02-28T07:45:48;27.73;;;18.60;;
20090;SDS011;10205;49.678;6.560;2024-02-28T07:48:14;27.03;;;16.53;;
20090;SDS011;10205;49.678;6.560;2024-02-28T07:50:43;25.07;;;14.97;;
20090;SDS011;10205;49.678;6.560;2024-02-28T07:53:11;26.13;;;16.33;;
20090;SDS011;10205;49.678;6.560;2024-02-28T07:55:38;25.87;;;15.63;;
20090;SDS011;10205;49.678;6.560;2024-02-28T07:58:05;27.77;;;16.57;;
20090;SDS011;10205;49.678;6.560;2024-02-28T08:00:34;26.53;;;15.10;;
20090;SDS011;10205;49.678;6.560;2024-02-28T08:03:01;27.20;;;16.17;;
20090;SDS011;10205;49.678;6.560;2024-02-28T08:05:29;25.53;;;16.00;;
20090;SDS011;10205;49.678;6.560;2024-02-28T08:07:59;23.97;;;15.70;;
20090;SDS011;10205;49.678;6.560;2024-02-28T08:10:26;23.47;;;14.23;;
20090;SDS011;10205;49.678;6.560;2024-02-28T08:12:53;23.70;;;15.33;;
20090;SDS011;10205;49.678;6.560;2024-02-28T08:15:20;26.10;;;15.27;;
20090;SDS011;10205;49.678;6.560;2024-02-28T08:17:47;29.63;;;20.90;;
20090;SDS011;10205;49.678;6.560;2024-02-28T08:20:14;25.57;;;15.83;;
20090;SDS011;10205;49.678;6.560;2024-02-28T08:22:42;28.93;;;17.10;;
20090;SDS011;10205;49.678;6.560;2024-02-28T08:25:10;26.37;;;16.67;;
20090;SDS011;10205;49.678;6.560;2024-02-28T08:27:37;26.90;;;16.47;;
20090;SDS011;10205;49.678;6.560;2024-02-28T08:30:05;28.47;;;17.23;;
20090;SDS011;10205;49.678;6.560;2024-02-28T08:32:33;24.93;;;16.30;;
20090;SDS011;10205;49.678;6.560;2024-02-28T08:35:00;28.13;;;16.90;;
20090;SDS011;10205;49.678;6.560;2024-02-28T08:37:29;27.37;;;19.13;;
20090;SDS011;10205;49.678;6.560;2024-02-28T08:39:56;26.73;;;17.63;;
20090;SDS011;10205;49.678;6.560;2024-02-28T08:42:24;28.17;;;20.13;;
20090;SDS011;10205;49.678;6.560;2024-02-28T08:44:52;27.17;;;17.80;;
20090;SDS011;10205;49.678;6.560;2024-02-28T08:47:22;29.57;;;17.17;;
20090;SDS011;10205;49.678;6.560;2024-02-28T08:49:50;28.30;;;16.93;;
20090;SDS011;10205;49.678;6.560;2024-02-28T08:52:17;27.13;;;17.10;;
20090;SDS011;10205;49.678;6.560;2024-02-28T08:54:44;29.70;;;17.57;;
20090;SDS011;10205;49.678;6.560;2024-02-28T08:57:12;30.13;;;18.43;;
20090;SDS011;10205;49.678;6.560;2024-02-28T08:59:40;27.20;;;19.43;;
20090;SDS011;10205;49.678;6.560;2024-02-28T09:02:08;28.20;;;18.17;;
20090;SDS011;10205;49.678;6.560;2024-02-28T09:04:36;28.77;;;17.70;;
20090;SDS011;10205;49.678;6.560;2024-02-28T09:07:03;27.90;;;19.77;;
20090;SDS011;10205;49.678;6.560;2024-02-28T09:09:30;27.70;;;17.87;;
20090;SDS011;10205;49.678;6.560;2024-02-28T09:12:01;29.17;;;20.40;;
20090;SDS011;10205;49.678;6.560;2024-02-28T09:14:29;28.50;;;17.67;;
20090;SDS011;10205;49.678;6.560;2024-02-28T09:16:57;26.43;;;17.20;;
20090;SDS011;10205;49.678;6.560;2024-02-28T09:19:28;27.00;;;17.03;;
20090;SDS011;10205;49.678;6.560;2024-02-28T09:21:55;28.17;;;18.17;;
20090;SDS011;10205;49.678;6.560;2024-02-28T09:24:23;30.30;;;17.87;;
20090;SDS011;10205;49.678;6.560;2024-02-28T09:26:50;26.00;;;16.93;;
20090;SDS011;10205;49.678;6.560;2024-02-28T09:29:17;26.60;;;17.53;;
20090;SDS011;10205;49.678;6.560;2024-02-28T09:31:44;25.40;;;16.23;;
20090;SDS011;10205;49.678;6.560;2024-02-28T09:34:12;25.50;;;15.93;;
20090;SDS011;10205;49.678;6.560;2024-02-28T09:36:40;30.43;;;18.23;;
20090;SDS011;10205;49.678;6.560;2024-02-28T09:39:08;26.20;;;17.10;;
20090;SDS011;10205;49.678;6.560;2024-02-28T09:41:35;28.07;;;17.53;;
20090;SDS011;10205;49.678;6.560;2024-02-28T09:44:02;29.43;;;17.20;;
20090;SDS011;10205;49.678;6.560;2024-02-28T09:46:32;26.03;;;17.50;;
20090;SDS011;10205;49.678;6.560;2024-02-28T09:49:01;27.33;;;17.07;;
20090;SDS011;10205;49.678;6.560;2024-02-28T09:51:35;26.17;;;16.47;;
20090;SDS011;10205;49.678;6.560;2024-02-28T09:54:02;27.30;;;16.27;;
20090;SDS011;10205;49.678;6.560;2024-02-28T09:56:30;27.53;;;17.83;;
20090;SDS011;10205;49.678;6.560;2024-02-28T09:58:57;30.53;;;18.50;;
20090;SDS011;10205;49.678;6.560;2024-02-28T10:01:28;29.70;;;18.17;;
20090;SDS011;10205;49.678;6.560;2024-02-28T10:03:55;24.83;;;16.03;;
20090;SDS011;10205;49.678;6.560;2024-02-28T10:06:25;25.27;;;17.13;;
20090;SDS011;10205;49.678;6.560;2024-02-28T10:08:53;24.20;;;17.07;;
20090;SDS011;10205;49.678;6.560;2024-02-28T10:11:21;29.20;;;18.20;;
20090;SDS011;10205;49.678;6.560;2024-02-28T10:13:49;28.10;;;17.17;;
20090;SDS011;10205;49.678;6.560;2024-02-28T10:16:20;27.13;;;16.30;;
20090;SDS011;10205;49.678;6.560;2024-02-28T10:18:47;26.27;;;16.53;;
20090;SDS011;10205;49.678;6.560;2024-02-28T10:21:14;27.27;;;17.30;;
20090;SDS011;10205;49.678;6.560;2024-02-28T10:23:43;28.27;;;17.27;;
20090;SDS011;10205;49.678;6.560;2024-02-28T10:26:12;25.87;;;17.03;;
20090;SDS011;10205;49.678;6.560;2024-02-28T10:28:40;29.17;;;20.07;;
20090;SDS011;10205;49.678;6.560;2024-02-28T10:31:09;24.97;;;16.90;;
20090;SDS011;10205;49.678;6.560;2024-02-28T10:33:37;30.53;;;18.67;;
20090;SDS011;10205;49.678;6.560;2024-02-28T10:36:05;29.50;;;19.07;;
20090;SDS011;10205;49.678;6.560;2024-02-28T10:38:32;26.03;;;16.60;;
20090;SDS011;10205;49.678;6.560;2024-02-28T10:41:01;26.17;;;17.90;;
20090;SDS011;10205;49.678;6.560;2024-02-28T10:43:30;27.23;;;18.17;;
20090;SDS011;10205;49.678;6.560;2024-02-28T10:45:59;25.13;;;16.40;;
20090;SDS011;10205;49.678;6.560;2024-02-28T10:48:27;28.77;;;17.07;;
20090;SDS011;10205;49.678;6.560;2024-02-28T10:50:54;26.17;;;18.33;;
20090;SDS011;10205;49.678;6.560;2024-02-28T10:53:22;28.47;;;17.10;;
20090;SDS011;10205;49.678;6.560;2024-02-28T10:56:02;26.77;;;15.53;;
20090;SDS011;10205;49.678;6.560;2024-02-28T10:58:33;23.80;;;14.67;;
20090;SDS011;10205;49.678;6.560;2024-02-28T11:01:03;25.30;;;15.93;;
20090;SDS011;10205;49.678;6.560;2024-02-28T11:03:32;26.73;;;16.47;;
20090;SDS011;10205;49.678;6.560;2024-02-28T11:05:59;25.63;;;16.87;;
20090;SDS011;10205;49.678;6.560;2024-02-28T11:08:27;26.93;;;16.73;;
20090;SDS011;10205;49.678;6.560;2024-02-28T11:10:56;25.27;;;15.70;;
20090;SDS011;10205;49.678;6.560;2024-02-28T11:13:29;25.80;;;15.80;;
20090;SDS011;10205;49.678;6.560;2024-02-28T11:16:08;24.17;;;15.60;;
20090;SDS011;10205;49.678;6.560;2024-02-28T11:18:36;21.42;;;14.05;;
20090;SDS011;10205;49.678;6.560;2024-02-28T11:21:14;25.57;;;16.73;;
20090;SDS011;10205;49.678;6.560;2024-02-28T11:23:42;23.60;;;15.63;;
20090;SDS011;10205;49.678;6.560;2024-02-28T11:26:13;23.27;;;14.80;;
20090;SDS011;10205;49.678;6.560;2024-02-28T11:28:40;24.13;;;15.57;;
20090;SDS011;10205;49.678;6.560;2024-02-28T11:31:09;23.33;;;15.20;;
20090;SDS011;10205;49.678;6.560;2024-02-28T11:33:36;22.60;;;14.90;;
20090;SDS011;10205;49.678;6.560;2024-02-28T11:36:04;22.83;;;15.47;;
20090;SDS011;10205;49.678;6.560;2024-02-28T11:38:34;24.13;;;15.80;;
20090;SDS011;10205;49.678;6.560;2024-02-28T11:41:03;24.40;;;15.70;;
20090;SDS011;10205;49.678;6.560;2024-02-28T11:43:30;25.17;;;15.27;;
20090;SDS011;10205;49.678;6.560;2024-02-28T11:45:58;24.67;;;15.50;;
20090;SDS011;10205;49.678;6.560;2024-02-28T11:48:27;24.67;;;15.85;;
20090;SDS011;10205;49.678;6.560;2024-02-28T11:50:54;26.27;;;15.43;;
20090;SDS011;10205;49.678;6.560;2024-02-28T11:53:24;25.07;;;15.77;;
20090;SDS011;10205;49.678;6.560;2024-02-28T11:55:51;25.77;;;15.47;;
20090;SDS011;10205;49.678;6.560;2024-02-28T11:58:20;23.27;;;15.23;;
20090;SDS011;10205;49.678;6.560;2024-02-28T12:00:48;21.87;;;14.33;;
20090;SDS011;10205;49.678;6.560;2024-02-28T12:03:20;26.23;;;15.67;;
20090;SDS011;10205;49.678;6.560;2024-02-28T12:05:49;25.65;;;16.13;;
20090;SDS011;10205;49.678;6.560;2024-02-28T12:08:18;22.65;;;13.65;;
20090;SDS011;10205;49.678;6.560;2024-02-28T12:10:46;24.43;;;15.67;;
20090;SDS011;10205;49.678;6.560;2024-02-28T12:13:15;21.60;;;14.13;;
20090;SDS011;10205;49.678;6.560;2024-02-28T12:15:43;20.70;;;14.15;;
20090;SDS011;10205;49.678;6.560;2024-02-28T12:18:11;19.33;;;13.55;;
20090;SDS011;10205;49.678;6.560;2024-02-28T12:20:40;20.97;;;13.67;;
20090;SDS011;10205;49.678;6.560;2024-02-28T12:23:09;21.47;;;14.23;;
20090;SDS011;10205;49.678;6.560;2024-02-28T12:25:36;22.15;;;14.63;;
20090;SDS011;10205;49.678;6.560;2024-02-28T12:28:04;24.60;;;16.27;;
20090;SDS011;10205;49.678;6.560;2024-02-28T12:30:38;22.10;;;14.13;;
20090;SDS011;10205;49.678;6.560;2024-02-28T12:33:07;19.40;;;13.60;;
20090;SDS011;10205;49.678;6.560;2024-02-28T12:35:36;20.88;;;14.10;;
20090;SDS011;10205;49.678;6.560;2024-02-28T12:38:06;19.75;;;14.05;;
20090;SDS011;10205;49.678;6.560;2024-02-28T12:40:35;22.33;;;13.80;;
20090;SDS011;10205;49.678;6.560;2024-02-28T12:43:03;21.83;;;14.25;;
20090;SDS011;10205;49.678;6.560;2024-02-28T12:45:30;20.40;;;13.73;;
20090;SDS011;10205;49.678;6.560;2024-02-28T12:47:57;22.08;;;14.02;;
20090;SDS011;10205;49.678;6.560;2024-02-28T12:50:26;23.55;;;14.98;;
20090;SDS011;10205;49.678;6.560;2024-02-28T12:52:53;21.02;;;13.48;;
20090;SDS011;10205;49.678;6.560;2024-02-28T12:55:20;20.25;;;13.48;;
20090;SDS011;10205;49.678;6.560;2024-02-28T12:57:48;23.73;;;14.27;;
20090;SDS011;10205;49.678;6.560;2024-02-28T13:00:16;20.60;;;13.27;;
20090;SDS011;10205;49.678;6.560;2024-02-28T13:02:43;20.33;;;13.75;;
20090;SDS011;10205;49.678;6.560;2024-02-28T13:05:11;20.30;;;13.50;;
20090;SDS011;10205;49.678;6.560;2024-02-28T13:07:39;19.73;;;12.77;;
20090;SDS011;10205;49.678;6.560;2024-02-28T13:10:06;19.77;;;13.63;;
20090;SDS011;10205;49.678;6.560;2024-02-28T13:12:35;16.67;;;12.53;;
20090;SDS011;10205;49.678;6.560;2024-02-28T13:15:06;20.15;;;12.63;;
20090;SDS011;10205;49.678;6.560;2024-02-28T13:17:34;19.83;;;13.83;;
20090;SDS011;10205;49.678;6.560;2024-02-28T13:20:01;17.67;;;11.80;;
20090;SDS011;10205;49.678;6.560;2024-02-28T13:22:28;19.88;;;13.23;;
20090;SDS011;10205;49.678;6.560;2024-02-28T13:24:56;21.73;;;14.18;;
20090;SDS011;10205;49.678;6.560;2024-02-28T13:27:23;19.63;;;13.67;;
20090;SDS011;10205;49.678;6.560;2024-02-28T13:29:50;21.02;;;13.80;;
20090;SDS011;10205;49.678;6.560;2024-02-28T13:32:18;20.00;;;13.40;;
20090;SDS011;10205;49.678;6.560;2024-02-28T13:34:46;23.08;;;13.23;;
20090;SDS011;10205;49.678;6.560;2024-02-28T13:37:13;19.70;;;12.82;;
20090;SDS011;10205;49.678;6.560;2024-02-28T13:39:40;21.73;;;13.77;;
20090;SDS011;10205;49.678;6.560;2024-02-28T13:42:07;20.65;;;12.70;;
20090;SDS011;10205;49.678;6.560;2024-02-28T13:44:34;19.27;;;12.70;;
20090;SDS011;10205;49.678;6.560;2024-02-28T13:47:03;21.00;;;13.20;;
20090;SDS011;10205;49.678;6.560;2024-02-28T13:49:32;20.02;;;13.10;;
20090;SDS011;10205;49.678;6.560;2024-02-28T13:51:59;19.73;;;12.95;;
20090;SDS011;10205;49.678;6.560;2024-02-28T13:54:26;19.17;;;13.10;;
20090;SDS011;10205;49.678;6.560;2024-02-28T13:56:56;18.38;;;13.15;;
20090;SDS011;10205;49.678;6.560;2024-02-28T13:59:23;18.58;;;12.38;;
20090;SDS011;10205;49.678;6.560;2024-02-28T14:01:50;20.65;;;13.57;;
20090;SDS011;10205;49.678;6.560;2024-02-28T14:04:17;22.30;;;13.40;;
20090;SDS011;10205;49.678;6.560;2024-02-28T14:06:46;21.92;;;14.27;;
20090;SDS011;10205;49.678;6.560;2024-02-28T14:09:14;19.67;;;12.13;;
20090;SDS011;10205;49.678;6.560;2024-02-28T14:11:41;18.33;;;13.50;;
20090;SDS011;10205;49.678;6.560;2024-02-28T14:14:08;24.33;;;13.30;;
20090;SDS011;10205;49.678;6.560;2024-02-28T14:16:37;18.35;;;12.73;;
20090;SDS011;10205;49.678;6.560;2024-02-28T14:19:04;19.65;;;13.10;;
20090;SDS011;10205;49.678;6.560;2024-02-28T14:21:33;19.45;;;13.02;;
20090;SDS011;10205;49.678;6.560;2024-02-28T14:24:02;20.67;;;13.23;;